createdAt,value
2023-01-29T00:00:10.316Z,37.45
2023-01-29T00:05:26.438Z,34.85
2023-01-29T00:10:27.738Z,32.92
2023-01-29T00:15:28.093Z,33.28
2023-01-29T00:20:27.246Z,35.97
2023-01-29T00:25:26.389Z,31.92
2023-01-29T00:30:25.259Z,26.63
2023-01-29T00:35:25.656Z,22.25
2023-01-29T00:40:28.256Z,22.97
2023-01-29T00:45:29.443Z,21.33
2023-01-29T00:50:30.155Z,21.55
2023-01-29T00:55:30.310Z,21.65
2023-01-29T01:00:29.252Z,22.23
2023-01-29T01:05:30.201Z,15.23
2023-01-29T01:10:31.860Z,13.88
2023-01-29T01:15:33.237Z,13.65
2023-01-29T01:20:36.054Z,16.92
2023-01-29T01:25:37.009Z,37.80
2023-01-29T01:30:36.029Z,48.07
2023-01-29T01:35:36.338Z,28.40
2023-01-29T01:40:36.969Z,15.33
2023-01-29T01:45:37.741Z,10.40
2023-01-29T01:50:44.604Z,12.13
2023-01-29T01:55:52.059Z,9.73
2023-01-29T02:00:52.135Z,11.10
2023-01-29T02:06:12.714Z,12.73
2023-01-29T02:11:12.128Z,13.17
2023-01-29T02:16:11.650Z,12.53
2023-01-29T02:21:29.334Z,10.60
2023-01-29T02:26:55.261Z,12.80
2023-01-29T02:32:07.820Z,14.17
2023-01-29T02:37:13.944Z,10.00
2023-01-29T02:42:18.335Z,10.43
2023-01-29T02:47:23.932Z,11.13
2023-01-29T02:52:27.852Z,10.40
2023-01-29T02:57:33.188Z,10.60
2023-01-29T03:02:39.529Z,13.57
2023-01-29T03:07:42.929Z,12.33
2023-01-29T03:12:47.375Z,9.43
2023-01-29T03:17:57.677Z,10.85
2023-01-29T03:23:01.543Z,14.33
2023-01-29T03:28:20.623Z,10.93
2023-01-29T03:33:25.300Z,12.53
2023-01-29T03:38:29.784Z,10.40
2023-01-29T03:43:35.859Z,11.77
2023-01-29T03:48:41.451Z,11.03
2023-01-29T03:53:45.786Z,10.70
2023-01-29T03:58:50.343Z,10.63
2023-01-29T04:03:57.148Z,12.93
2023-01-29T04:09:00.744Z,10.97
2023-01-29T04:13:59.874Z,12.27
2023-01-29T04:19:01.563Z,12.10
2023-01-29T04:24:08.737Z,13.43
2023-01-29T04:29:26.146Z,10.50
2023-01-29T04:34:38.317Z,11.05
2023-01-29T04:39:45.310Z,11.77
2023-01-29T04:44:53.040Z,13.95
2023-01-29T04:50:03.960Z,18.00
2023-01-29T04:55:07.640Z,16.30
2023-01-29T05:00:13.451Z,12.65
2023-01-29T05:05:16.104Z,11.18
2023-01-29T05:10:17.291Z,15.83
2023-01-29T05:15:21.490Z,12.73
2023-01-29T05:20:22.547Z,14.63
2023-01-29T05:25:24.265Z,14.17
2023-01-29T05:30:23.196Z,53.63
2023-01-29T05:35:23.414Z,23.97
2023-01-29T05:40:22.383Z,19.00
2023-01-29T05:45:21.291Z,25.38
2023-01-29T05:50:20.455Z,34.33
2023-01-29T05:55:20.897Z,38.20
2023-01-29T06:00:20.776Z,22.90
2023-01-29T06:05:19.855Z,18.10
2023-01-29T06:10:21.011Z,17.17
2023-01-29T06:15:20.965Z,17.13
2023-01-29T06:20:20.047Z,15.93
2023-01-29T06:25:20.477Z,15.70
2023-01-29T06:30:20.245Z,18.00
2023-01-29T06:35:19.373Z,22.73
2023-01-29T06:40:18.743Z,25.77
2023-01-29T06:45:19.460Z,24.33
2023-01-29T06:50:19.229Z,23.95
2023-01-29T06:55:18.655Z,26.13
2023-01-29T07:00:20.667Z,29.87
2023-01-29T07:05:19.775Z,34.87
2023-01-29T07:10:19.263Z,40.87
2023-01-29T07:15:21.484Z,51.38
2023-01-29T07:20:22.016Z,43.97
2023-01-29T07:25:21.002Z,26.93
2023-01-29T07:30:26.472Z,23.95
2023-01-29T07:35:27.904Z,23.63
2023-01-29T07:40:27.822Z,25.77
2023-01-29T07:45:28.944Z,25.70
2023-01-29T07:50:29.846Z,25.65
2023-01-29T07:55:29.315Z,19.80
2023-01-29T08:00:33.140Z,21.40
2023-01-29T08:05:32.897Z,22.38
2023-01-29T08:10:32.194Z,21.33
2023-01-29T08:15:33.217Z,19.05
2023-01-29T08:20:32.427Z,19.25
2023-01-29T08:25:31.590Z,18.85
2023-01-29T08:30:35.190Z,21.80
2023-01-29T08:35:34.329Z,22.35
2023-01-29T08:40:35.434Z,61.97
2023-01-29T08:45:38.205Z,32.53
2023-01-29T08:50:37.413Z,28.00
2023-01-29T08:55:39.796Z,21.70
2023-01-29T09:00:40.562Z,44.70
2023-01-29T09:05:40.701Z,29.83
2023-01-29T09:10:39.604Z,23.83
2023-01-29T09:15:39.880Z,27.13
2023-01-29T09:20:39.084Z,33.50
2023-01-29T09:25:38.405Z,25.40
2023-01-29T09:30:38.294Z,28.38
2023-01-29T09:35:41.307Z,35.88
2023-01-29T09:40:51.899Z,30.30
2023-01-29T09:45:57.944Z,33.00
2023-01-29T09:51:01.898Z,35.17
2023-01-29T09:56:04.349Z,26.15
2023-01-29T10:01:13.605Z,17.15
2023-01-29T10:06:29.298Z,19.52
2023-01-29T10:11:39.681Z,22.25
2023-01-29T10:16:51.948Z,21.10
2023-01-29T10:22:27.510Z,20.63
2023-01-29T10:27:33.319Z,19.25
2023-01-29T10:32:33.440Z,30.52
2023-01-29T10:37:40.571Z,28.42
2023-01-29T10:42:47.758Z,21.58
2023-01-29T10:48:06.237Z,22.45
2023-01-29T10:53:27.470Z,22.38
2023-01-29T10:58:35.678Z,28.65
2023-01-29T11:03:35.547Z,21.80
2023-01-29T11:08:41.556Z,21.85
2023-01-29T11:13:46.714Z,23.38
2023-01-29T11:18:54.874Z,17.92
2023-01-29T11:24:07.595Z,23.05
2023-01-29T11:29:06.627Z,24.98
2023-01-29T11:34:14.314Z,28.77
2023-01-29T11:39:20.779Z,21.17
2023-01-29T11:44:28.934Z,34.33
2023-01-29T11:49:34.275Z,25.50
2023-01-29T11:54:40.039Z,27.70
2023-01-29T11:59:42.949Z,22.13
2023-01-29T12:04:42.262Z,29.77
2023-01-29T12:09:42.607Z,33.22
2023-01-29T12:14:41.621Z,25.60
2023-01-29T12:19:47.831Z,24.20
2023-01-29T12:24:55.716Z,25.90
2023-01-29T12:30:05.258Z,41.95
2023-01-29T12:35:12.664Z,26.13
2023-01-29T12:40:38.867Z,25.38
2023-01-29T12:45:39.018Z,28.98
2023-01-29T12:50:39.848Z,22.23
2023-01-29T12:55:45.117Z,30.35
2023-01-29T13:00:48.855Z,29.77
2023-01-29T13:05:51.740Z,35.30
2023-01-29T13:10:56.363Z,30.37
2023-01-29T13:16:00.244Z,39.03
2023-01-29T13:21:03.795Z,26.20
2023-01-29T13:26:07.892Z,47.13
2023-01-29T13:31:22.910Z,39.67
2023-01-29T13:36:27.574Z,50.70
2023-01-29T13:41:47.959Z,59.08
2023-01-29T13:46:53.342Z,44.70
2023-01-29T13:51:54.115Z,36.47
2023-01-29T13:57:02.659Z,54.25
2023-01-29T14:02:23.052Z,42.67
2023-01-29T14:07:51.321Z,39.90
2023-01-29T14:12:56.055Z,63.92
2023-01-29T14:18:01.761Z,49.13
2023-01-29T14:23:04.715Z,50.03
2023-01-29T14:28:14.901Z,39.83
2023-01-29T14:33:29.578Z,55.20
2023-01-29T14:38:30.335Z,36.08
2023-01-29T14:43:33.186Z,39.05
2023-01-29T14:48:50.240Z,48.10
2023-01-29T14:54:00.881Z,64.30
2023-01-29T14:59:16.066Z,56.50
2023-01-29T15:04:21.635Z,46.08
2023-01-29T15:09:36.847Z,59.90
2023-01-29T15:14:43.789Z,70.60
2023-01-29T15:19:45.208Z,55.90
2023-01-29T15:24:45.645Z,60.78
2023-01-29T15:29:50.063Z,59.58
2023-01-29T15:34:50.533Z,59.58
2023-01-29T15:39:53.227Z,209.15
2023-01-29T15:44:56.114Z,94.70
2023-01-29T15:49:57.484Z,111.13
2023-01-29T15:55:02.021Z,296.52
2023-01-29T16:00:04.720Z,78.18
2023-01-29T16:05:17.563Z,62.10
2023-01-29T16:10:20.246Z,60.72
2023-01-29T16:15:32.394Z,42.63
2023-01-29T16:20:38.420Z,43.67
2023-01-29T16:25:40.058Z,38.10
2023-01-29T16:30:41.571Z,44.55
2023-01-29T16:35:41.608Z,43.63
2023-01-29T16:40:42.304Z,36.67
2023-01-29T16:45:42.790Z,34.42
2023-01-29T16:50:54.286Z,33.45
2023-01-29T16:55:56.071Z,28.65
2023-01-29T17:01:00.215Z,36.78
2023-01-29T17:06:00.132Z,34.97
2023-01-29T17:10:59.349Z,42.08
2023-01-29T17:16:04.277Z,40.72
2023-01-29T17:21:03.187Z,33.63
2023-01-29T17:26:02.719Z,24.90
2023-01-29T17:31:06.816Z,24.33
2023-01-29T17:36:06.373Z,23.67
2023-01-29T17:41:08.740Z,22.00
2023-01-29T17:46:13.496Z,24.80
2023-01-29T17:51:15.027Z,29.85
2023-01-29T17:56:17.504Z,26.00
2023-01-29T18:01:18.010Z,28.67
2023-01-29T18:06:25.300Z,28.52
2023-01-29T18:11:24.549Z,26.45
2023-01-29T18:16:28.832Z,32.33
2023-01-29T18:21:27.761Z,26.35
2023-01-29T18:26:26.818Z,32.08
2023-01-29T18:31:27.285Z,38.03
2023-01-29T18:36:26.779Z,36.17
2023-01-29T18:41:26.166Z,29.95
2023-01-29T18:46:26.703Z,30.90
2023-01-29T18:51:25.943Z,36.47
2023-01-29T18:56:25.883Z,50.15
2023-01-29T19:01:27.408Z,68.85
2023-01-29T19:06:37.098Z,35.28
2023-01-29T19:11:36.751Z,31.23
2023-01-29T19:16:40.146Z,32.85
2023-01-29T19:21:39.418Z,34.60
2023-01-29T19:26:38.390Z,35.45
2023-01-29T19:31:38.351Z,55.13
2023-01-29T19:36:39.095Z,48.38
2023-01-29T19:41:38.108Z,40.47
2023-01-29T19:46:37.067Z,38.95
2023-01-29T19:51:41.561Z,45.05
2023-01-29T19:56:47.775Z,60.00
2023-01-29T20:01:46.593Z,59.53
2023-01-29T20:06:50.317Z,69.15
2023-01-29T20:11:56.036Z,58.50
2023-01-29T20:17:00.884Z,62.47
2023-01-29T20:22:01.440Z,57.65
2023-01-29T20:27:00.844Z,55.47
2023-01-29T20:32:00.647Z,54.88
2023-01-29T20:37:01.099Z,44.38
2023-01-29T20:42:00.364Z,36.08
2023-01-29T20:47:01.825Z,40.83
2023-01-29T20:52:03.063Z,41.20
2023-01-29T20:57:04.879Z,48.80
2023-01-29T21:02:03.927Z,53.20
2023-01-29T21:07:04.270Z,49.22
2023-01-29T21:12:05.434Z,45.65
2023-01-29T21:17:04.958Z,33.42
2023-01-29T21:22:05.274Z,31.65
2023-01-29T21:27:04.090Z,25.65
2023-01-29T21:32:04.454Z,24.80
2023-01-29T21:37:04.643Z,22.80
2023-01-29T21:42:20.800Z,27.48
2023-01-29T21:47:19.801Z,22.80
2023-01-29T21:52:20.242Z,21.65
2023-01-29T21:57:33.159Z,23.83
2023-01-29T22:02:32.408Z,24.17
2023-01-29T22:07:32.880Z,24.75
2023-01-29T22:12:31.965Z,25.67
2023-01-29T22:17:31.044Z,23.17
2023-01-29T22:22:29.937Z,22.38
2023-01-29T22:27:30.460Z,28.30
2023-01-29T22:32:30.766Z,25.65
2023-01-29T22:37:32.925Z,25.48
2023-01-29T22:42:40.357Z,25.45
2023-01-29T22:47:42.219Z,23.67
2023-01-29T22:52:43.523Z,21.87
2023-01-29T22:57:43.820Z,22.02
2023-01-29T23:02:43.610Z,20.92
2023-01-29T23:07:42.586Z,22.00
2023-01-29T23:12:41.709Z,24.45
2023-01-29T23:17:41.998Z,18.23
2023-01-29T23:22:40.925Z,16.50
2023-01-29T23:27:39.723Z,18.38
2023-01-29T23:32:38.571Z,16.05
2023-01-29T23:37:38.697Z,14.63
2023-01-29T23:42:37.511Z,15.17
2023-01-29T23:47:36.478Z,16.83
2023-01-29T23:52:35.279Z,15.87
2023-01-29T23:57:35.419Z,12.67
